Time;durP1;ratioP1;P1;durP2;ratioP2;P2;SDS_P1;SDS_P2;PMS_P1;PMS_P2;Temp;Humidity;BMP_temperature;BMP_pressure;BME280_temperature;BME280_humidity;BME280_pressure;Samples;Min_cycle;Max_cycle;Signal;HPM_P1;HPM_P2
2021/11/26 00:01:33;;;;;;;74.55;39.60;;;;;;;2.91;100.00;96815.44;5113999;28;20028;-85
2021/11/26 00:04:00;;;;;;;78.63;39.30;;;;;;;2.94;100.00;96809.50;5113502;28;20025;-82
2021/11/26 00:06:26;;;;;;;78.95;41.28;;;;;;;2.96;100.00;96812.72;5112340;28;20391;-84
2021/11/26 00:08:51;;;;;;;70.35;38.63;;;;;;;3.01;100.00;96809.19;5112398;28;20040;-84
2021/11/26 00:11:17;;;;;;;74.97;39.83;;;;;;;3.03;100.00;96796.22;5113242;28;20024;-85
2021/11/26 00:13:47;;;;;;;79.63;38.67;;;;;;;3.09;100.00;96798.63;5111695;28;20027;-82
2021/11/26 00:16:18;;;;;;;80.20;39.92;;;;;;;3.05;100.00;96799.44;5114309;28;20008;-83
2021/11/26 00:18:48;;;;;;;66.85;37.00;;;;;;;3.19;100.00;96800.50;5112273;28;20036;-83
2021/11/26 00:21:13;;;;;;;75.07;39.95;;;;;;;3.08;100.00;96797.00;5112457;28;20035;-87
2021/11/26 00:23:39;;;;;;;81.07;43.55;;;;;;;2.99;100.00;96777.06;5114348;28;20024;-83
2021/11/26 00:26:04;;;;;;;79.82;41.88;;;;;;;3.04;100.00;96770.81;5116290;28;20024;-78
2021/11/26 00:28:30;;;;;;;78.95;41.35;;;;;;;2.98;100.00;96767.34;5116688;28;20023;-78
2021/11/26 00:30:55;;;;;;;80.13;41.97;;;;;;;3.07;100.00;96764.91;5115167;28;20016;-78
2021/11/26 00:33:22;;;;;;;84.55;40.70;;;;;;;3.13;100.00;96758.38;5115340;28;20028;-85
2021/11/26 00:35:49;;;;;;;88.47;41.45;;;;;;;3.22;100.00;96760.22;5114681;28;20028;-83
2021/11/26 00:38:14;;;;;;;77.70;42.05;;;;;;;3.10;100.00;96759.72;5114691;28;20033;-85
2021/11/26 00:40:39;;;;;;;89.10;43.85;;;;;;;3.10;100.00;96753.53;5113051;28;20015;-81
2021/11/26 00:43:05;;;;;;;90.15;42.40;;;;;;;3.01;100.00;96747.88;5114347;28;20058;-90
2021/11/26 00:45:31;;;;;;;76.05;42.30;;;;;;;3.01;100.00;96747.88;5112345;28;20067;-83
2021/11/26 00:47:57;;;;;;;82.57;44.80;;;;;;;2.97;100.00;96740.63;5111393;28;20094;-88
2021/11/26 00:50:22;;;;;;;88.00;43.88;;;;;;;3.06;100.00;96742.47;5110779;28;20024;-88
2021/11/26 00:52:48;;;;;;;75.53;41.50;;;;;;;3.17;100.00;96738.63;5104912;28;20028;-88
2021/11/26 00:55:13;;;;;;;84.63;41.58;;;;;;;3.15;100.00;96735.41;5104293;28;20139;-90
2021/11/26 00:57:40;;;;;;;81.15;43.47;;;;;;;3.16;100.00;96720.78;5099312;28;20031;-86
2021/11/26 01:00:09;;;;;;;80.25;41.63;;;;;;;3.11;100.00;96722.72;5098879;28;20530;-83
2021/11/26 01:02:35;;;;;;;81.32;42.92;;;;;;;3.04;100.00;96701.41;5098090;28;20477;-87
2021/11/26 01:05:01;;;;;;;79.00;43.20;;;;;;;3.10;100.00;96705.69;5097935;28;20020;-85
2021/11/26 01:07:26;;;;;;;75.75;40.50;;;;;;;3.15;100.00;96694.88;5096140;28;20114;-85
2021/11/26 01:09:52;;;;;;;71.15;41.85;;;;;;;3.06;100.00;96687.66;5096921;28;20035;-88
2021/11/26 01:12:18;;;;;;;66.82;38.42;;;;;;;3.05;100.00;96686.03;5097143;28;20024;-85
2021/11/26 01:14:43;;;;;;;71.70;39.55;;;;;;;2.97;100.00;96679.34;5106886;28;20028;-84
2021/11/26 01:17:09;;;;;;;70.68;38.47;;;;;;;3.03;100.00;96680.91;5119232;28;20024;-79
2021/11/26 01:19:34;;;;;;;70.03;37.88;;;;;;;2.99;100.00;96681.72;5118623;28;20029;-82
2021/11/26 01:22:00;;;;;;;67.57;37.42;;;;;;;2.99;100.00;96670.94;5120253;28;20031;-76
2021/11/26 01:24:25;;;;;;;63.38;36.35;;;;;;;3.00;100.00;96659.88;5120314;28;20040;-81
2021/11/26 01:26:51;;;;;;;64.63;37.03;;;;;;;2.97;100.00;96657.72;5120510;28;20012;-77
2021/11/26 01:29:16;;;;;;;62.47;37.13;;;;;;;3.06;100.00;96658.75;5119155;28;20032;-78
2021/11/26 01:31:42;;;;;;;73.82;39.53;;;;;;;3.07;100.00;96648.75;5118196;28;20024;-80
2021/11/26 01:34:09;;;;;;;68.43;36.00;;;;;;;3.05;100.00;96640.91;5119278;28;20043;-81
2021/11/26 01:36:35;;;;;;;67.18;37.20;;;;;;;2.95;100.00;96649.06;5118767;28;20012;-78
2021/11/26 01:39:04;;;;;;;71.20;37.13;;;;;;;2.93;100.00;96639.66;5119422;28;20080;-80
2021/11/26 01:41:29;;;;;;;68.65;38.65;;;;;;;2.76;100.00;96634.59;5105752;28;20126;-86
2021/11/26 01:43:55;;;;;;;71.78;39.05;;;;;;;2.87;100.00;96624.56;5103786;28;20016;-89
2021/11/26 01:46:20;;;;;;;77.43;39.35;;;;;;;2.95;100.00;96619.38;5101082;28;20114;-83
2021/11/26 01:48:45;;;;;;;70.75;38.20;;;;;;;2.88;100.00;96620.78;5100682;28;20028;-86
2021/11/26 01:51:11;;;;;;;70.80;38.10;;;;;;;2.91;100.00;96612.13;5109254;28;20114;-89
2021/11/26 01:53:38;;;;;;;65.97;37.58;;;;;;;2.87;100.00;96609.19;5105409;28;20036;-86
2021/11/26 01:56:05;;;;;;;67.00;37.92;;;;;;;2.92;100.00;96611.03;5103388;28;20961;-87
2021/11/26 01:58:30;;;;;;;65.57;36.55;;;;;;;2.98;100.00;96608.00;5102418;28;20567;-85
2021/11/26 02:00:58;;;;;;;67.72;36.75;;;;;;;3.03;100.00;96609.88;5104235;28;20024;-87
2021/11/26 02:03:24;;;;;;;62.95;35.50;;;;;;;3.04;100.00;96608.78;5109589;28;20012;-78
2021/11/26 02:05:49;;;;;;;66.03;36.80;;;;;;;3.02;100.00;96603.66;5103972;28;20032;-83
2021/11/26 02:08:15;;;;;;;67.85;38.35;;;;;;;2.98;100.00;96596.41;5075465;28;20033;-84
2021/11/26 02:10:41;;;;;;;70.40;40.13;;;;;;;2.98;100.00;96588.28;5075338;28;20051;-87
2021/11/26 02:13:08;;;;;;;71.13;39.50;;;;;;;2.85;100.00;96587.03;5075162;28;20385;-85
2021/11/26 02:15:40;;;;;;;79.93;41.85;;;;;;;2.73;100.00;96575.78;5076157;28;20031;-87
2021/11/26 02:18:07;;;;;;;77.72;39.88;;;;;;;2.76;100.00;96569.81;5076094;28;20032;-82
2021/11/26 02:20:32;;;;;;;67.03;39.75;;;;;;;2.81;100.00;96561.69;5075897;28;20544;-88
2021/11/26 02:22:58;;;;;;;67.95;37.53;;;;;;;2.75;100.00;96552.03;5078209;28;20059;-85
2021/11/26 02:25:26;;;;;;;66.53;37.97;;;;;;;2.74;100.00;96553.09;5078202;28;20032;-85
2021/11/26 02:27:54;;;;;;;68.30;38.75;;;;;;;2.82;100.00;96546.31;5075320;28;20024;-83
2021/11/26 02:30:20;;;;;;;71.63;39.65;;;;;;;2.86;100.00;96540.06;5075378;28;20039;-89
2021/11/26 02:32:54;;;;;;;75.15;39.65;;;;;;;2.96;100.00;96537.28;5076176;28;20420;-85
2021/11/26 02:35:21;;;;;;;69.03;38.05;;;;;;;2.94;100.00;96528.66;5076747;28;20028;-84
2021/11/26 02:37:47;;;;;;;65.53;37.03;;;;;;;3.01;100.00;96523.72;5077666;28;20031;-86
2021/11/26 02:40:15;;;;;;;67.68;38.42;;;;;;;3.05;100.00;96518.56;5082843;28;20021;-88
2021/11/26 02:42:41;;;;;;;63.47;38.08;;;;;;;2.89;100.00;96508.97;5084263;28;20035;-82
2021/11/26 02:45:08;;;;;;;65.70;37.53;;;;;;;2.84;100.00;96507.16;5078739;28;20024;-88
2021/11/26 02:47:35;;;;;;;63.95;38.03;;;;;;;2.89;100.00;96493.59;5076373;28;20031;-84
2021/11/26 02:50:04;;;;;;;59.90;37.15;;;;;;;2.93;100.00;96489.25;5075961;28;20041;-86
2021/11/26 02:52:30;;;;;;;53.28;34.08;;;;;;;2.93;100.00;96489.25;5077067;28;20108;-86
2021/11/26 02:54:56;;;;;;;65.95;38.25;;;;;;;2.86;100.00;96482.56;5075969;28;20127;-88
2021/11/26 02:57:21;;;;;;;66.45;37.03;;;;;;;2.92;100.00;96470.63;5075855;28;20048;-83
2021/11/26 02:59:48;;;;;;;60.17;37.08;;;;;;;2.94;100.00;96474.66;5077385;28;20051;-79
2021/11/26 03:02:14;;;;;;;64.38;37.10;;;;;;;2.98;100.00;96459.50;5076858;28;20392;-86
2021/11/26 03:04:40;;;;;;;63.75;35.40;;;;;;;3.09;100.00;96455.63;5075948;28;20078;-80
2021/11/26 03:07:07;;;;;;;70.88;38.13;;;;;;;3.04;100.00;96458.34;5087847;28;20108;-84
2021/11/26 03:09:33;;;;;;;58.95;35.42;;;;;;;3.09;100.00;96452.91;5095311;28;20391;-81
2021/11/26 03:11:58;;;;;;;60.20;35.72;;;;;;;3.05;100.00;96454.56;5094961;28;20052;-85
2021/11/26 03:14:24;;;;;;;63.15;37.35;;;;;;;2.99;100.00;96447.59;5095738;28;20051;-85
2021/11/26 03:16:50;;;;;;;64.55;36.55;;;;;;;2.98;100.00;96437.88;5096752;28;20020;-84
2021/11/26 03:19:15;;;;;;;61.10;36.47;;;;;;;3.07;100.00;96424.59;5098748;28;20135;-86
2021/11/26 03:21:41;;;;;;;57.97;35.13;;;;;;;2.99;100.00;96420.59;5097536;28;20065;-88
2021/11/26 03:24:06;;;;;;;59.30;34.92;;;;;;;3.04;100.00;96425.94;5097962;28;20080;-85
2021/11/26 03:26:32;;;;;;;58.38;33.60;;;;;;;3.13;100.00;96412.66;5097519;28;20024;-88
2021/11/26 03:28:57;;;;;;;55.13;34.25;;;;;;;3.14;100.00;96398.03;5096832;28;20046;-86
2021/11/26 03:31:23;;;;;;;60.70;35.13;;;;;;;3.14;100.00;96398.84;5096723;28;20106;-84
2021/11/26 03:33:48;;;;;;;52.05;33.35;;;;;;;3.08;100.00;96397.28;5098171;28;20024;-85
2021/11/26 03:36:13;;;;;;;57.33;35.63;;;;;;;3.10;100.00;96386.22;5098142;28;20016;-84
2021/11/26 03:38:39;;;;;;;56.40;32.53;;;;;;;3.18;100.00;96393.69;5098252;28;20035;-86
2021/11/26 03:41:04;;;;;;;51.65;32.50;;;;;;;3.26;100.00;96384.16;5097730;28;20453;-85
2021/11/26 03:43:30;;;;;;;55.15;31.65;;;;;;;3.12;100.00;96379.44;5104913;28;20500;-84
2021/11/26 03:45:55;;;;;;;49.05;29.25;;;;;;;3.10;100.00;96375.41;5105992;28;20100;-88
2021/11/26 03:48:21;;;;;;;48.20;30.27;;;;;;;3.11;100.00;96371.59;5099123;28;20039;-85
2021/11/26 03:50:46;;;;;;;47.80;29.33;;;;;;;3.09;100.00;96361.09;5098752;28;20024;-80
2021/11/26 03:53:11;;;;;;;48.70;29.88;;;;;;;3.13;100.00;96355.94;5097439;28;20032;-88
2021/11/26 03:55:37;;;;;;;46.35;29.92;;;;;;;3.09;100.00;96353.00;5099732;28;20061;-87
2021/11/26 03:58:03;;;;;;;45.03;29.38;;;;;;;3.08;100.00;96345.97;5098113;28;20131;-86
2021/11/26 04:00:28;;;;;;;52.15;30.27;;;;;;;3.12;100.00;96349.72;5098586;28;20062;-80
2021/11/26 04:02:54;;;;;;;52.00;31.60;;;;;;;3.05;100.00;96341.16;5099406;28;20115;-87
2021/11/26 04:05:20;;;;;;;49.53;30.55;;;;;;;3.04;100.00;96344.94;5100460;28;20073;-85
2021/11/26 04:07:46;;;;;;;57.25;32.30;;;;;;;3.29;100.00;96334.94;5101750;28;20090;-83
2021/11/26 04:10:12;;;;;;;54.50;32.22;;;;;;;3.28;100.00;96333.31;5098934;28;20039;-87
2021/11/26 04:12:38;;;;;;;59.10;36.20;;;;;;;3.19;100.00;96341.28;5096890;28;20536;-84
2021/11/26 04:15:08;;;;;;;58.55;37.28;;;;;;;3.11;100.00;96337.28;5096407;28;20062;-82
2021/11/26 04:17:35;;;;;;;63.20;37.90;;;;;;;3.06;100.00;96334.66;5095815;28;20085;-78
2021/11/26 04:20:04;;;;;;;65.90;38.60;;;;;;;2.87;100.00;96328.41;5095964;28;20027;-82
2021/11/26 04:22:29;;;;;;;56.85;35.83;;;;;;;2.90;100.00;96333.22;5095149;28;20566;-83
2021/11/26 04:24:54;;;;;;;62.33;38.25;;;;;;;2.87;100.00;96325.69;5094970;28;20457;-84
2021/11/26 04:27:20;;;;;;;60.28;36.80;;;;;;;2.85;100.00;96316.28;5099647;28;20107;-84
2021/11/26 04:29:45;;;;;;;58.53;35.90;;;;;;;2.82;100.00;96311.44;5098685;28;20024;-87
2021/11/26 04:32:14;;;;;;;62.42;37.15;;;;;;;2.85;100.00;96303.56;5098405;28;20020;-82
2021/11/26 04:34:39;;;;;;;57.78;35.60;;;;;;;2.80;100.00;96298.22;5098624;28;20028;-83
2021/11/26 04:37:04;;;;;;;63.92;36.72;;;;;;;2.80;100.00;96292.03;5098228;28;20095;-78
2021/11/26 04:39:30;;;;;;;53.83;34.17;;;;;;;2.78;100.00;96281.53;5098240;28;20028;-85
2021/11/26 04:41:55;;;;;;;58.75;34.08;;;;;;;2.81;100.00;96270.16;5098024;28;20031;-83
2021/11/26 04:44:21;;;;;;;58.13;36.25;;;;;;;2.84;100.00;96256.06;5097515;28;20504;-83
2021/11/26 04:46:46;;;;;;;51.75;33.00;;;;;;;2.91;100.00;96259.25;5099584;28;20115;-86
2021/11/26 04:49:11;;;;;;;48.30;30.88;;;;;;;2.89;100.00;96269.50;5100098;28;20020;-85
2021/11/26 04:51:37;;;;;;;52.13;33.20;;;;;;;2.86;100.00;96255.78;5100726;28;20024;-86
2021/11/26 04:54:04;;;;;;;58.72;35.30;;;;;;;2.85;100.00;96254.19;5103607;28;20044;-88
2021/11/26 04:56:30;;;;;;;59.13;35.33;;;;;;;2.87;100.00;96258.19;5106558;28;20055;-84
2021/11/26 04:58:56;;;;;;;56.40;35.58;;;;;;;2.86;100.00;96245.78;5101410;28;20108;-85
2021/11/26 05:01:21;;;;;;;56.58;34.13;;;;;;;2.88;100.00;96249.00;5100668;28;20465;-84
2021/11/26 05:03:47;;;;;;;55.53;35.00;;;;;;;2.83;100.00;96251.75;5099300;28;20024;-84
2021/11/26 05:06:12;;;;;;;52.88;33.70;;;;;;;2.80;100.00;96241.53;5101766;28;20094;-84
2021/11/26 05:08:38;;;;;;;52.53;34.13;;;;;;;2.72;100.00;96235.97;5101376;28;20096;-83
2021/11/26 05:11:03;;;;;;;57.65;35.13;;;;;;;2.72;100.00;96232.16;5100655;28;20038;-85
2021/11/26 05:13:31;;;;;;;51.95;34.88;;;;;;;2.74;100.00;96226.50;5114159;28;20032;-87
2021/11/26 05:15:57;;;;;;;57.28;36.35;;;;;;;2.67;100.00;96231.44;5111638;28;20023;-83
2021/11/26 05:18:23;;;;;;;58.85;35.97;;;;;;;2.68;100.00;96223.06;5098216;28;20028;-83
2021/11/26 05:20:53;;;;;;;56.40;34.67;;;;;;;2.71;100.00;96216.28;5097483;28;20112;-87
2021/11/26 05:23:20;;;;;;;56.45;34.35;;;;;;;2.74;100.00;96221.09;5097939;28;20020;-88
2021/11/26 05:25:45;;;;;;;55.28;32.97;;;;;;;2.75;100.00;96214.63;5097552;28;20028;-85
2021/11/26 05:28:12;;;;;;;52.10;32.55;;;;;;;2.74;100.00;96207.59;5098819;28;20362;-84
2021/11/26 05:30:37;;;;;;;56.10;33.90;;;;;;;2.74;100.00;96206.78;5098771;28;20374;-80
2021/11/26 05:33:03;;;;;;;54.65;31.98;;;;;;;2.70;100.00;96199.28;5108238;28;20061;-86
2021/11/26 05:35:29;;;;;;;53.42;33.15;;;;;;;2.76;100.00;96196.53;5117195;28;20024;-88
2021/11/26 05:37:54;;;;;;;50.05;32.15;;;;;;;2.78;100.00;96194.34;5118938;28;20012;-85
2021/11/26 05:40:20;;;;;;;53.35;31.98;;;;;;;2.80;100.00;96190.25;5114637;28;20024;-89
2021/11/26 05:42:46;;;;;;;54.40;33.63;;;;;;;2.78;100.00;96184.34;5114572;28;20115;-85
2021/11/26 05:45:13;;;;;;;50.50;31.58;;;;;;;2.76;100.00;96180.34;5117729;28;20062;-90
2021/11/26 05:47:39;;;;;;;45.03;29.95;;;;;;;2.72;100.00;96179.31;5099667;28;20028;-88
2021/11/26 05:50:07;;;;;;;50.58;32.22;;;;;;;2.70;100.00;96172.28;5095848;28;20056;-84
2021/11/26 05:52:34;;;;;;;46.28;28.98;;;;;;;2.78;100.00;96178.94;5085404;28;20115;-87
2021/11/26 05:55:00;;;;;;;45.90;28.73;;;;;;;2.86;100.00;96186.38;5077312;28;20118;-84
2021/11/26 05:57:26;;;;;;;47.10;29.05;;;;;;;2.86;100.00;96175.59;5075636;28;20033;-76
2021/11/26 05:59:51;;;;;;;49.90;31.15;;;;;;;2.89;100.00;96168.81;5089163;28;20088;-89
2021/11/26 06:02:16;;;;;;;51.03;31.23;;;;;;;2.90;100.00;96165.03;5082144;28;20025;-76
2021/11/26 06:04:42;;;;;;;47.22;29.92;;;;;;;2.82;100.00;96161.06;5097769;28;20040;-77
2021/11/26 06:07:08;;;;;;;49.13;30.38;;;;;;;2.85;100.00;96162.41;5099840;28;20020;-82
2021/11/26 06:09:33;;;;;;;43.40;28.48;;;;;;;2.91;100.00;96151.25;5098694;28;20029;-82
2021/11/26 06:11:59;;;;;;;43.58;27.55;;;;;;;2.93;100.00;96154.44;5096643;28;20001;-82
2021/11/26 06:14:25;;;;;;;44.78;29.60;;;;;;;2.89;100.00;96145.31;5096813;28;20013;-83
2021/11/26 06:16:51;;;;;;;51.80;30.10;;;;;;;2.95;100.00;96146.84;5087045;28;20004;-80
2021/11/26 06:19:16;;;;;;;47.58;28.38;;;;;;;3.01;100.00;96134.88;5086761;28;20036;-83
2021/11/26 06:21:42;;;;;;;50.08;29.67;;;;;;;3.08;100.00;96129.13;5089883;28;20073;-82
2021/11/26 06:24:07;;;;;;;44.75;29.38;;;;;;;3.12;100.00;96136.34;5085981;28;20017;-82
2021/11/26 06:26:33;;;;;;;42.03;28.40;;;;;;;3.13;100.00;96129.84;5086220;28;20020;-85
2021/11/26 06:28:59;;;;;;;46.20;27.95;;;;;;;3.21;100.00;96137.28;5089015;28;20016;-79
2021/11/26 06:31:24;;;;;;;45.80;28.23;;;;;;;3.19;100.00;96131.41;5092395;28;20028;-83
2021/11/26 06:33:50;;;;;;;43.50;27.70;;;;;;;3.23;100.00;96121.59;5093412;28;20036;-84
2021/11/26 06:36:15;;;;;;;39.63;26.85;;;;;;;3.29;100.00;96118.81;5088177;28;20001;-87
2021/11/26 06:38:41;;;;;;;38.38;26.25;;;;;;;3.29;100.00;96122.31;5088892;28;20024;-81
2021/11/26 06:41:06;;;;;;;33.20;22.85;;;;;;;3.43;100.00;96119.66;5090325;28;20043;-80
2021/11/26 06:43:32;;;;;;;30.60;20.63;;;;;;;3.30;100.00;96120.41;5086421;28;20024;-83
2021/11/26 06:45:57;;;;;;;30.40;19.85;;;;;;;3.30;100.00;96120.41;5096726;28;20035;-87
2021/11/26 06:48:25;;;;;;;23.63;18.17;;;;;;;3.36;100.00;96124.63;5094350;28;20056;-87
2021/11/26 06:50:51;;;;;;;23.67;17.75;;;;;;;3.40;100.00;96115.66;5089570;28;20029;-84
2021/11/26 06:53:17;;;;;;;24.17;17.05;;;;;;;3.39;100.00;96113.22;5088219;28;20050;-84
2021/11/26 06:55:42;;;;;;;25.27;17.73;;;;;;;3.39;100.00;96107.81;5088718;28;20033;-83
2021/11/26 06:58:08;;;;;;;25.73;18.13;;;;;;;3.34;100.00;96110.63;5089181;28;20037;-87
2021/11/26 07:00:33;;;;;;;24.45;17.95;;;;;;;3.41;100.00;96105.66;5088320;28;20032;-88
2021/11/26 07:02:59;;;;;;;24.50;17.73;;;;;;;3.33;100.00;96098.22;5090998;28;20028;-81
2021/11/26 07:05:24;;;;;;;24.90;17.73;;;;;;;3.34;100.00;96097.94;5091662;28;20054;-85
2021/11/26 07:07:50;;;;;;;23.45;17.02;;;;;;;3.44;100.00;96099.66;5090564;28;20028;-85
2021/11/26 07:10:15;;;;;;;23.15;17.13;;;;;;;3.38;100.00;96095.44;5089471;28;20108;-86
2021/11/26 07:12:41;;;;;;;23.05;16.48;;;;;;;3.45;100.00;96090.44;5103052;28;20031;-89
2021/11/26 07:15:09;;;;;;;23.25;17.50;;;;;;;3.49;100.00;96086.84;5130442;28;20024;-87
2021/11/26 07:17:35;;;;;;;25.38;18.27;;;;;;;3.61;100.00;96080.97;5131830;27;20042;-81
2021/11/26 07:20:03;;;;;;;25.95;18.45;;;;;;;3.64;100.00;96085.78;5126479;28;20020;-90
2021/11/26 07:22:28;;;;;;;23.30;17.27;;;;;;;3.59;100.00;96085.88;5120206;28;20016;-89
2021/11/26 07:24:54;;;;;;;27.15;17.13;;;;;;;3.62;100.00;96079.88;5128644;28;20045;-84
2021/11/26 07:27:19;;;;;;;24.00;17.60;;;;;;;3.58;100.00;96073.47;5128316;28;20220;-87
2021/11/26 07:29:45;;;;;;;25.33;17.48;;;;;;;3.53;100.00;96076.25;5132915;28;20031;-86
2021/11/26 07:32:11;;;;;;;26.73;17.48;;;;;;;3.58;100.00;96073.47;5129251;28;20047;-81
2021/11/26 07:34:39;;;;;;;25.30;17.85;;;;;;;3.62;100.00;96074.47;5125287;28;20073;-86
2021/11/26 07:37:06;;;;;;;26.10;17.65;;;;;;;3.64;100.00;96080.38;5123814;28;20027;-86
2021/11/26 07:39:34;;;;;;;21.63;16.00;;;;;;;3.65;100.00;96073.88;5122071;28;20431;-86
2021/11/26 07:42:03;;;;;;;21.08;16.00;;;;;;;3.61;100.00;96080.97;5125909;28;20045;-83
2021/11/26 07:44:28;;;;;;;21.65;14.52;;;;;;;3.70;100.00;96079.19;5127126;28;20040;-88
2021/11/26 07:46:53;;;;;;;24.20;16.17;;;;;;;3.71;100.00;96076.19;5126731;28;20083;-87
2021/11/26 07:49:19;;;;;;;21.65;15.80;;;;;;;3.68;100.00;96065.97;5126561;28;20047;-88
2021/11/26 07:51:45;;;;;;;22.00;15.70;;;;;;;3.67;100.00;96068.97;5127138;28;20024;-83
2021/11/26 07:54:10;;;;;;;23.75;16.40;;;;;;;3.72;100.00;96055.38;5127550;28;20063;-86
2021/11/26 07:56:36;;;;;;;23.83;16.23;;;;;;;3.74;100.00;96056.69;5128307;28;20041;-80
2021/11/26 07:59:03;;;;;;;25.13;18.05;;;;;;;3.77;100.00;96053.38;5127959;28;20028;-84
2021/11/26 08:01:28;;;;;;;23.38;18.10;;;;;;;3.79;100.00;96053.06;5134401;27;20024;-90
2021/11/26 08:03:54;;;;;;;26.40;19.98;;;;;;;3.68;100.00;96047.06;5134009;27;20030;-88
2021/11/26 08:06:19;;;;;;;26.98;19.33;;;;;;;3.68;100.00;96044.34;5133735;28;20020;-85
2021/11/26 08:08:44;;;;;;;29.58;20.45;;;;;;;3.68;100.00;96047.06;5134518;27;20023;-84
2021/11/26 08:11:10;;;;;;;28.55;21.25;;;;;;;3.65;100.00;96044.16;5134937;27;20060;-87
2021/11/26 08:13:36;;;;;;;30.85;21.75;;;;;;;3.71;100.00;96037.53;5115267;27;20039;-84
2021/11/26 08:16:01;;;;;;;30.23;21.90;;;;;;;3.72;100.00;96031.06;5113667;28;20039;-84
2021/11/26 08:18:27;;;;;;;30.95;21.67;;;;;;;3.72;100.00;96031.06;5113579;28;20024;-81
2021/11/26 08:20:52;;;;;;;26.05;19.08;;;;;;;3.88;100.00;96021.56;5118902;28;20024;-84
2021/11/26 08:23:18;;;;;;;24.65;18.40;;;;;;;3.93;100.00;96015.22;5115344;28;20502;-84
2021/11/26 08:25:43;;;;;;;28.38;19.88;;;;;;;3.97;100.00;96021.66;5117790;28;20027;-80
2021/11/26 08:28:08;;;;;;;26.08;18.35;;;;;;;3.92;100.00;96017.13;5121577;28;20016;-83
2021/11/26 08:30:34;;;;;;;25.42;19.00;;;;;;;3.94;100.00;96006.03;5122201;28;20020;-85
2021/11/26 08:33:01;;;;;;;25.52;18.92;;;;;;;3.94;100.00;96012.22;5119352;28;20087;-91
2021/11/26 08:35:26;;;;;;;27.77;19.77;;;;;;;3.94;100.00;96006.81;5116731;28;20088;-87
2021/11/26 08:37:53;;;;;;;28.20;19.80;;;;;;;3.91;100.00;96002.03;5116756;28;20526;-84
2021/11/26 08:40:18;;;;;;;28.70;20.05;;;;;;;3.93;100.00;95999.81;5119288;28;20066;-87
2021/11/26 08:42:45;;;;;;;34.53;23.48;;;;;;;3.94;100.00;96001.41;5121446;28;20028;-81
2021/11/26 08:45:12;;;;;;;43.75;28.45;;;;;;;3.90;100.00;95994.19;5122237;28;20035;-83
2021/11/26 08:47:39;;;;;;;47.65;30.98;;;;;;;3.90;100.00;96010.41;5121081;28;20019;-85
2021/11/26 08:50:05;;;;;;;48.92;31.13;;;;;;;3.92;100.00;95998.19;5117841;28;20020;-88
2021/11/26 08:52:31;;;;;;;47.85;31.23;;;;;;;3.91;100.00;95991.22;5116524;28;20077;-83
2021/11/26 08:54:57;;;;;;;48.92;30.95;;;;;;;3.92;100.00;95976.56;5112933;28;20500;-74
2021/11/26 08:57:27;;;;;;;46.25;29.27;;;;;;;4.00;100.00;95988.59;5096783;28;20070;-74
2021/11/26 08:59:52;;;;;;;46.10;30.20;;;;;;;4.01;100.00;95990.19;5097105;28;20031;-74
2021/11/26 09:02:18;;;;;;;55.30;33.88;;;;;;;4.00;100.00;95988.59;5097014;28;20028;-74
2021/11/26 09:04:43;;;;;;;61.58;37.92;;;;;;;3.87;100.00;95984.78;5096784;28;20472;-74
2021/11/26 09:07:09;;;;;;;71.85;42.00;;;;;;;3.97;100.00;95976.47;5097197;28;20028;-74
2021/11/26 09:09:34;;;;;;;47.38;29.23;;;;;;;4.11;100.00;95979.94;5105999;28;20035;-91
2021/11/26 09:12:02;;;;;;;44.00;28.13;;;;;;;4.17;100.00;95977.94;5107755;28;20020;-88
2021/11/26 09:14:27;;;;;;;39.42;26.83;;;;;;;4.27;100.00;95977.72;5105534;28;20027;-87
2021/11/26 09:16:52;;;;;;;35.20;22.85;;;;;;;4.29;100.00;95962.00;5120868;28;20028;-87
2021/11/26 09:19:18;;;;;;;32.90;21.67;;;;;;;4.42;100.00;95966.56;5108210;28;20028;-82
2021/11/26 09:21:44;;;;;;;34.22;23.10;;;;;;;4.41;100.00;95961.47;5108740;28;20058;-82
2021/11/26 09:24:10;;;;;;;33.67;23.73;;;;;;;4.45;100.00;95962.47;5107156;28;20066;-87
2021/11/26 09:26:38;;;;;;;37.10;24.38;;;;;;;4.43;100.00;95953.81;5102487;28;20017;-87
2021/11/26 09:29:04;;;;;;;37.58;24.45;;;;;;;4.40;100.00;95963.34;5107152;28;20051;-89
2021/11/26 09:31:30;;;;;;;34.67;23.83;;;;;;;4.45;100.00;95962.47;5106359;28;20481;-89
2021/11/26 09:33:56;;;;;;;35.53;23.30;;;;;;;4.45;100.00;95954.34;5105017;28;20068;-88
2021/11/26 09:36:23;;;;;;;37.15;24.13;;;;;;;4.49;100.00;95948.00;5106961;28;20020;-86
2021/11/26 09:38:49;;;;;;;35.45;24.02;;;;;;;4.47;100.00;95946.69;5106746;28;20077;-86
2021/11/26 09:41:15;;;;;;;38.97;25.90;;;;;;;4.37;100.00;95938.81;5105101;28;20119;-87
2021/11/26 09:43:41;;;;;;;37.25;26.23;;;;;;;4.36;100.00;95945.31;5104038;28;20024;-85
2021/11/26 09:46:07;;;;;;;34.28;24.77;;;;;;;4.43;100.00;95940.28;5102242;28;20107;-87
2021/11/26 09:48:35;;;;;;;34.70;23.17;;;;;;;4.57;100.00;95941.88;5095071;28;20495;-88
2021/11/26 09:51:01;;;;;;;33.72;24.42;;;;;;;4.61;100.00;95933.91;5093767;28;20107;-87
2021/11/26 09:53:28;;;;;;;39.22;24.50;;;;;;;4.64;100.00;95922.47;5094296;28;20042;-86
2021/11/26 09:55:56;;;;;;;35.55;24.73;;;;;;;4.67;100.00;95924.56;5094488;28;20069;-83
2021/11/26 09:58:24;;;;;;;34.08;23.02;;;;;;;4.82;100.00;95922.28;5092002;28;20024;-83
2021/11/26 10:00:51;;;;;;;39.10;23.10;;;;;;;4.95;100.00;95907.06;5096030;28;20055;-82
2021/11/26 10:03:17;;;;;;;31.23;21.58;;;;;;;5.04;100.00;95910.63;5093700;28;20020;-81
2021/11/26 10:05:47;;;;;;;29.40;20.75;;;;;;;5.00;100.00;95900.72;5090159;28;20032;-80
2021/11/26 10:08:21;;;;;;;32.08;22.83;;;;;;;5.03;100.00;95902.81;5093846;28;20020;-84
2021/11/26 10:10:47;;;;;;;35.50;24.33;;;;;;;5.17;100.00;95898.88;5094997;28;20020;-86
2021/11/26 10:13:16;;;;;;;32.53;22.20;;;;;;;5.27;100.00;95884.28;5098716;28;20100;-81
2021/11/26 10:15:50;;;;;;;32.67;22.70;;;;;;;5.21;100.00;95872.78;5101963;28;20047;-78
2021/11/26 10:18:27;;;;;;;34.30;22.67;;;;;;;5.14;100.00;95879.75;5091844;28;20038;-89
2021/11/26 10:20:59;;;;;;;37.25;24.92;;;;;;;5.14;100.00;95880.53;5101378;28;20107;-90
2021/11/26 10:23:28;;;;;;;40.08;26.60;;;;;;;5.18;100.00;95884.25;5102470;28;20028;-85
2021/11/26 10:25:57;;;;;;;33.60;24.48;;;;;;;5.69;100.00;95874.69;5108691;28;20028;-90
2021/11/26 10:28:25;;;;;;;36.80;24.77;;;;;;;6.04;100.00;95881.81;5106393;28;20032;-87
2021/11/26 10:30:51;;;;;;;32.58;20.60;;;;;;;5.94;100.00;95884.84;5110943;28;20016;-85
2021/11/26 10:33:25;;;;;;;31.83;23.13;;;;;;;5.72;100.00;95876.78;5109667;28;20020;-86
2021/11/26 10:36:02;;;;;;;35.17;24.05;;;;;;;5.56;100.00;95878.31;5102558;28;20063;-88
2021/11/26 10:38:32;;;;;;;34.70;26.85;;;;;;;5.43;100.00;95871.91;5105629;28;20058;-87
2021/11/26 10:41:05;;;;;;;35.13;25.80;;;;;;;5.28;100.00;95865.00;5109243;28;20052;-85
2021/11/26 10:43:49;;;;;;;35.42;26.35;;;;;;;5.12;100.00;95863.81;5105997;28;20050;-88
2021/11/26 10:57:58;;;;;;;37.20;25.27;;;;;;;5.13;100.00;95848.38;5099661;28;20031;-85
2021/11/26 11:00:25;;;;;;;37.55;27.10;;;;;;;5.15;100.00;95836.09;5088858;28;20021;-90
2021/11/26 11:02:58;;;;;;;33.22;24.40;;;;;;;5.09;100.00;95837.34;5088834;28;20457;-84
2021/11/26 11:05:26;;;;;;;39.13;25.13;;;;;;;5.08;100.00;95833.03;5117931;28;20039;-91
2021/11/26 11:07:53;;;;;;;39.17;25.88;;;;;;;4.93;100.00;95833.44;5111010;28;20016;-88
2021/11/26 11:10:29;;;;;;;41.55;27.75;;;;;;;4.95;100.00;95825.78;5112359;28;20028;-86
2021/11/26 11:12:58;;;;;;;34.20;23.42;;;;;;;4.99;100.00;95818.66;5109338;28;20020;-90
2021/11/26 11:15:23;;;;;;;35.05;24.27;;;;;;;5.03;100.00;95816.13;5107386;28;20480;-82
2021/11/26 11:17:50;;;;;;;41.75;27.23;;;;;;;5.00;100.00;95817.56;5109481;28;20024;-83
2021/11/26 11:20:16;;;;;;;37.10;25.45;;;;;;;5.12;100.00;95816.94;5105402;28;20051;-89
2021/11/26 11:22:44;;;;;;;42.25;27.48;;;;;;;5.16;100.00;95818.72;5087615;28;20465;-84
2021/11/26 11:25:11;;;;;;;53.40;32.53;;;;;;;5.13;100.00;95815.84;5093445;28;20051;-84